createdAt,value
2022-10-05T00:00:53.309Z,8.43
2022-10-05T00:03:28.752Z,8.47
2022-10-05T00:06:02.593Z,8.48
2022-10-05T00:08:36.790Z,8.44
2022-10-05T00:11:10.980Z,8.43
2022-10-05T00:13:44.588Z,8.42
2022-10-05T00:16:20.967Z,8.41
2022-10-05T00:18:56.084Z,8.43
2022-10-05T00:21:30.456Z,8.46
2022-10-05T00:24:03.779Z,8.48
2022-10-05T00:26:37.399Z,8.41
2022-10-05T00:29:18.886Z,8.36
2022-10-05T00:31:52.889Z,8.35
2022-10-05T00:34:26.612Z,8.34
2022-10-05T00:36:59.902Z,8.32
2022-10-05T00:39:34.722Z,8.34
2022-10-05T00:42:16.919Z,8.34
2022-10-05T00:44:53.733Z,8.34
2022-10-05T00:47:37.152Z,8.27
2022-10-05T00:50:19.293Z,8.23
2022-10-05T00:52:57.015Z,8.20
2022-10-05T00:55:35.344Z,8.17
2022-10-05T00:58:14.498Z,8.17
2022-10-05T01:00:50.889Z,8.17
2022-10-05T01:03:27.378Z,8.16
2022-10-05T01:06:05.866Z,8.17
2022-10-05T01:08:44.433Z,8.17
2022-10-05T01:11:22.460Z,8.19
2022-10-05T01:14:02.577Z,8.19
2022-10-05T01:16:39.111Z,8.18
2022-10-05T01:19:18.125Z,8.14
2022-10-05T01:21:54.303Z,8.11
2022-10-05T01:24:48.286Z,8.10
2022-10-05T01:27:43.668Z,8.10
2022-10-05T01:30:20.112Z,8.11
2022-10-05T01:32:57.185Z,8.08
2022-10-05T01:35:37.554Z,8.03
2022-10-05T01:38:21.396Z,7.99
2022-10-05T01:40:58.987Z,7.96
2022-10-05T01:43:37.236Z,7.99
2022-10-05T01:46:14.847Z,8.00
2022-10-05T01:48:52.371Z,7.99
2022-10-05T01:51:29.527Z,7.96
2022-10-05T01:54:05.418Z,7.89
2022-10-05T01:56:42.918Z,7.91
2022-10-05T01:59:21.120Z,7.88
2022-10-05T02:01:59.288Z,7.86
2022-10-05T02:05:00.956Z,7.86
2022-10-05T02:07:15.289Z,7.84
2022-10-05T02:09:52.123Z,7.82
2022-10-05T02:12:29.600Z,7.82
2022-10-05T02:15:07.472Z,7.78
2022-10-05T02:17:44.298Z,7.68
2022-10-05T02:20:20.937Z,7.66
2022-10-05T02:22:57.600Z,7.61
2022-10-05T02:25:34.625Z,7.65
2022-10-05T02:28:11.504Z,7.64
2022-10-05T02:30:48.378Z,7.65
2022-10-05T02:33:26.146Z,7.65
2022-10-05T02:36:03.723Z,7.64
2022-10-05T02:38:41.269Z,7.63
2022-10-05T02:41:18.442Z,7.59
2022-10-05T02:43:55.154Z,7.61
2022-10-05T02:46:34.242Z,7.59
2022-10-05T02:49:10.104Z,7.57
2022-10-05T02:51:48.143Z,7.63
2022-10-05T02:54:23.803Z,7.55
2022-10-05T02:56:59.781Z,7.59
2022-10-05T02:59:36.917Z,7.51
2022-10-05T03:02:13.554Z,7.42
2022-10-05T03:04:50.552Z,7.48
2022-10-05T03:07:27.075Z,7.44
2022-10-05T03:10:04.379Z,7.47
2022-10-05T03:12:51.470Z,7.48
2022-10-05T03:15:45.261Z,7.48
2022-10-05T03:18:28.559Z,7.47
2022-10-05T03:21:04.335Z,7.44
2022-10-05T03:23:41.545Z,7.43
2022-10-05T03:26:25.652Z,7.42
2022-10-05T03:29:02.678Z,7.43
2022-10-05T03:31:39.485Z,7.45
2022-10-05T03:34:16.110Z,7.42
2022-10-05T03:36:52.771Z,7.39
2022-10-05T03:39:28.872Z,7.34
2022-10-05T03:42:07.478Z,7.27
2022-10-05T03:44:48.437Z,7.26
2022-10-05T03:47:26.942Z,7.23
2022-10-05T03:50:10.862Z,7.22
2022-10-05T03:52:48.256Z,7.24
2022-10-05T03:55:27.518Z,7.26
2022-10-05T03:58:03.050Z,7.25
2022-10-05T04:00:38.365Z,7.27
2022-10-05T04:03:15.672Z,7.28
2022-10-05T04:05:53.070Z,7.27
2022-10-05T04:08:30.507Z,7.31
2022-10-05T04:11:07.660Z,7.33
2022-10-05T04:13:44.230Z,7.37
2022-10-05T04:16:20.865Z,7.34
2022-10-05T04:18:58.363Z,7.36
2022-10-05T04:21:32.132Z,7.32
2022-10-05T04:24:08.698Z,7.34
2022-10-05T04:26:45.604Z,7.27
2022-10-05T04:29:23.390Z,7.25
2022-10-05T04:32:04.973Z,7.24
2022-10-05T04:34:46.120Z,7.22
2022-10-05T04:40:09.975Z,7.35
2022-10-05T04:42:47.556Z,7.23
2022-10-05T04:45:26.143Z,7.26
2022-10-05T04:48:18.162Z,7.31
2022-10-05T04:51:02.391Z,7.32
2022-10-05T04:53:38.852Z,7.34
2022-10-05T04:56:15.254Z,7.42
2022-10-05T04:59:04.084Z,7.46
2022-10-05T05:01:46.115Z,7.49
2022-10-05T05:04:35.642Z,7.52
2022-10-05T05:07:15.997Z,7.50
2022-10-05T05:10:14.162Z,7.50
2022-10-05T05:12:52.247Z,7.51
2022-10-05T05:15:35.232Z,7.51
2022-10-05T05:18:24.701Z,7.57
2022-10-05T05:21:01.409Z,7.64
2022-10-05T05:23:38.696Z,7.70
2022-10-05T05:26:15.372Z,7.71
2022-10-05T05:28:53.692Z,7.75
2022-10-05T05:31:31.385Z,7.81
2022-10-05T05:34:07.692Z,7.85
2022-10-05T05:36:51.614Z,7.90
2022-10-05T05:39:28.436Z,7.92
2022-10-05T05:42:05.663Z,7.94
2022-10-05T05:44:44.203Z,8.01
2022-10-05T05:47:21.909Z,8.04
2022-10-05T05:50:07.449Z,8.10
2022-10-05T05:52:45.541Z,8.12
2022-10-05T05:55:29.693Z,8.09
2022-10-05T05:58:02.932Z,8.09
2022-10-05T06:00:41.246Z,8.14
2022-10-05T06:03:18.323Z,8.16
2022-10-05T06:05:55.832Z,8.19
2022-10-05T06:08:32.850Z,8.25
2022-10-05T06:11:12.050Z,8.29
2022-10-05T06:13:46.120Z,8.29
2022-10-05T06:16:23.926Z,8.32
2022-10-05T06:18:57.647Z,8.33
2022-10-05T06:21:33.980Z,8.37
2022-10-05T06:24:12.760Z,8.27
2022-10-05T06:30:11.443Z,8.19
2022-10-05T06:32:57.686Z,7.88
2022-10-05T06:35:38.628Z,7.72
2022-10-05T06:38:24.528Z,7.66
2022-10-05T06:41:03.595Z,7.65
2022-10-05T06:43:50.674Z,7.72
2022-10-05T06:46:45.660Z,7.79
2022-10-05T06:49:42.636Z,7.88
2022-10-05T06:52:39.593Z,8.02
2022-10-05T06:55:19.777Z,8.12
2022-10-05T06:58:01.473Z,8.27
2022-10-05T07:00:38.957Z,8.39
2022-10-05T07:03:17.350Z,8.45
2022-10-05T07:05:56.368Z,8.65
2022-10-05T07:08:37.951Z,9.00
2022-10-05T07:11:16.633Z,9.19
2022-10-05T07:14:03.894Z,9.29
2022-10-05T07:16:46.245Z,9.43
2022-10-05T07:19:35.324Z,9.58
2022-10-05T07:22:22.336Z,9.80
2022-10-05T07:25:01.000Z,9.85
2022-10-05T07:27:37.417Z,9.74
2022-10-05T07:30:15.045Z,9.83
2022-10-05T07:32:55.151Z,9.85
2022-10-05T07:35:51.446Z,9.83
2022-10-05T07:38:28.057Z,9.84
2022-10-05T07:41:05.520Z,9.78
2022-10-05T07:44:01.584Z,10.01
2022-10-05T07:46:24.513Z,10.58
2022-10-05T07:49:06.229Z,10.74
2022-10-05T07:51:44.426Z,10.71
2022-10-05T07:54:21.747Z,10.54
2022-10-05T07:56:59.259Z,10.25
2022-10-05T07:59:38.807Z,9.96
2022-10-05T08:02:17.867Z,9.66
2022-10-05T08:04:54.823Z,9.47
2022-10-05T08:07:30.133Z,9.37
2022-10-05T08:10:07.395Z,9.30
2022-10-05T08:12:44.346Z,9.35
2022-10-05T08:15:20.860Z,9.52
2022-10-05T08:17:57.215Z,9.57
2022-10-05T08:20:42.245Z,9.69
2022-10-05T08:23:26.337Z,9.77
2022-10-05T08:26:06.144Z,10.06
2022-10-05T08:28:42.741Z,10.46
2022-10-05T08:31:21.123Z,10.72
2022-10-05T08:33:59.643Z,10.86
2022-10-05T08:36:42.102Z,10.98
2022-10-05T08:39:18.357Z,10.82
2022-10-05T08:42:21.029Z,10.57
2022-10-05T08:45:35.843Z,10.34
2022-10-05T08:48:32.519Z,10.21
2022-10-05T08:51:30.998Z,10.12
2022-10-05T08:57:48.524Z,9.85
2022-10-05T09:00:23.530Z,9.26
2022-10-05T09:03:39.954Z,9.29
2022-10-05T09:06:59.859Z,9.19
2022-10-05T09:09:59.545Z,9.23
2022-10-05T09:12:46.919Z,9.59
2022-10-05T09:15:44.361Z,10.27
2022-10-05T09:18:31.467Z,10.76
2022-10-05T09:21:09.802Z,10.95
2022-10-05T09:23:44.617Z,11.99
2022-10-05T09:26:46.473Z,15.16
2022-10-05T09:29:42.812Z,17.37
2022-10-05T09:35:34.632Z,16.08
2022-10-05T09:38:23.459Z,14.68
2022-10-05T09:41:21.221Z,13.82
2022-10-05T09:44:08.973Z,12.86
2022-10-05T09:46:54.045Z,12.01
2022-10-05T09:49:46.788Z,11.55
2022-10-05T09:52:27.469Z,11.13
2022-10-05T09:55:46.950Z,10.85
2022-10-05T09:58:42.966Z,10.53
2022-10-05T10:01:33.510Z,10.20
2022-10-05T10:04:19.041Z,10.19
2022-10-05T10:07:38.678Z,10.47
2022-10-05T10:10:34.216Z,10.60
2022-10-05T10:13:23.738Z,10.93
2022-10-05T10:16:13.054Z,11.41
2022-10-05T10:19:24.987Z,11.93
2022-10-05T10:22:10.948Z,12.55
2022-10-05T10:25:13.931Z,13.40
2022-10-05T10:27:57.161Z,13.64
2022-10-05T10:30:48.418Z,13.84
2022-10-05T10:34:02.410Z,13.73
2022-10-05T10:36:54.461Z,13.57
2022-10-05T10:39:32.966Z,13.95
2022-10-05T10:42:36.225Z,15.85
2022-10-05T10:45:21.277Z,19.30
2022-10-05T10:48:00.860Z,22.11
2022-10-05T10:51:20.348Z,23.86
2022-10-05T10:54:20.125Z,23.36
2022-10-05T10:57:08.882Z,19.33
2022-10-05T11:00:37.334Z,17.13
2022-10-05T11:03:50.415Z,15.63
2022-10-05T11:06:46.766Z,14.42
2022-10-05T11:09:36.640Z,13.66
2022-10-05T11:12:45.875Z,13.20
2022-10-05T11:16:01.062Z,12.98
2022-10-05T11:18:45.300Z,13.06
2022-10-05T11:21:30.229Z,14.05
2022-10-05T11:24:30.613Z,14.11
2022-10-05T11:27:31.930Z,13.72
2022-10-05T11:30:35.442Z,13.03
2022-10-05T11:33:56.816Z,12.33
2022-10-05T11:37:20.439Z,11.84
2022-10-05T11:40:13.259Z,11.26
2022-10-05T11:43:08.004Z,10.85
2022-10-05T11:45:51.399Z,10.84
2022-10-05T11:48:44.297Z,11.32
2022-10-05T11:51:39.783Z,13.09
2022-10-05T11:57:40.633Z,12.82
2022-10-05T12:00:20.343Z,12.51
2022-10-05T12:03:36.006Z,12.35
2022-10-05T12:06:31.189Z,12.34
2022-10-05T12:09:11.829Z,12.53
2022-10-05T12:11:57.949Z,12.20
2022-10-05T12:14:37.417Z,11.81
2022-10-05T12:17:17.411Z,11.38
2022-10-05T12:19:55.756Z,11.14
2022-10-05T12:22:36.188Z,11.00
2022-10-05T12:25:27.668Z,10.89
2022-10-05T12:28:05.490Z,10.86
2022-10-05T12:30:47.496Z,11.66
2022-10-05T12:33:27.269Z,13.35
2022-10-05T12:36:05.972Z,14.40
2022-10-05T12:38:45.004Z,14.16
2022-10-05T12:41:22.463Z,13.82
2022-10-05T12:44:04.932Z,14.35
2022-10-05T12:46:42.490Z,13.78
2022-10-05T12:49:57.266Z,12.94
2022-10-05T12:52:48.682Z,12.27
2022-10-05T12:55:26.992Z,11.69
2022-10-05T12:58:09.222Z,11.29
2022-10-05T13:00:47.537Z,11.01
2022-10-05T13:03:24.750Z,10.76
2022-10-05T13:06:04.241Z,10.43
2022-10-05T13:08:41.956Z,10.28
2022-10-05T13:11:18.670Z,10.14
2022-10-05T13:13:57.219Z,10.04
2022-10-05T13:16:36.153Z,9.94
2022-10-05T13:19:34.368Z,9.86
2022-10-05T13:22:16.961Z,9.77
2022-10-05T13:24:58.440Z,9.68
2022-10-05T13:27:35.472Z,9.69
2022-10-05T13:30:15.301Z,9.66
2022-10-05T13:32:52.346Z,9.59
2022-10-05T13:35:32.742Z,9.50
2022-10-05T13:38:10.439Z,9.41
2022-10-05T13:40:46.729Z,9.29
2022-10-05T13:43:23.484Z,9.19
2022-10-05T13:46:00.665Z,9.16
2022-10-05T13:48:48.925Z,9.17
2022-10-05T13:51:25.315Z,9.23
2022-10-05T13:54:04.894Z,9.36
2022-10-05T13:56:41.092Z,9.45
2022-10-05T13:59:18.836Z,9.52
2022-10-05T14:01:58.866Z,9.49
2022-10-05T14:04:35.915Z,9.43
2022-10-05T14:07:18.921Z,9.34
2022-10-05T14:09:53.203Z,9.31
2022-10-05T14:12:28.315Z,9.32
2022-10-05T14:15:04.654Z,9.30
2022-10-05T14:17:42.201Z,9.26
2022-10-05T14:20:25.670Z,9.25
2022-10-05T14:23:01.830Z,9.20
2022-10-05T14:25:38.108Z,9.15
2022-10-05T14:28:24.343Z,9.10
2022-10-05T14:31:02.137Z,9.07
2022-10-05T14:33:37.161Z,9.01
2022-10-05T14:36:16.346Z,8.95
2022-10-05T14:38:57.954Z,8.84
2022-10-05T14:41:33.395Z,8.69
2022-10-05T14:44:19.001Z,8.59
2022-10-05T14:46:55.639Z,8.49
2022-10-05T14:49:31.768Z,8.31
2022-10-05T14:52:25.813Z,8.20
2022-10-05T14:55:02.289Z,8.14
2022-10-05T14:57:39.358Z,8.10
2022-10-05T15:00:17.138Z,8.02
2022-10-05T15:03:19.138Z,8.00
2022-10-05T15:05:55.061Z,7.98
2022-10-05T15:08:41.629Z,7.90
2022-10-05T15:11:18.127Z,7.87
2022-10-05T15:13:52.368Z,7.83
2022-10-05T15:16:29.032Z,7.81
2022-10-05T15:19:05.372Z,7.78
2022-10-05T15:21:44.045Z,7.78
2022-10-05T15:24:20.857Z,7.77
2022-10-05T15:26:57.183Z,7.78
2022-10-05T15:29:55.059Z,7.79
2022-10-05T15:32:40.560Z,7.76
2022-10-05T15:35:55.458Z,7.76
2022-10-05T15:38:32.177Z,7.76
2022-10-05T15:41:16.301Z,7.74
2022-10-05T15:44:09.477Z,7.72
2022-10-05T15:46:48.160Z,7.73
2022-10-05T15:49:26.728Z,7.71
2022-10-05T15:52:05.890Z,7.73
2022-10-05T15:55:04.679Z,7.73
2022-10-05T15:57:42.039Z,7.74
2022-10-05T16:00:18.973Z,7.72
2022-10-05T16:02:55.922Z,7.73
2022-10-05T16:05:53.964Z,7.73
2022-10-05T16:08:52.259Z,7.74
2022-10-05T16:11:32.750Z,7.72
2022-10-05T16:14:13.852Z,7.71
2022-10-05T16:16:51.303Z,7.71
2022-10-05T16:19:28.316Z,7.72
2022-10-05T16:22:06.380Z,7.69
2022-10-05T16:25:05.771Z,7.68
2022-10-05T16:27:46.635Z,7.64
2022-10-05T16:30:23.598Z,7.61
2022-10-05T16:33:02.192Z,7.63
2022-10-05T16:35:40.446Z,7.65
2022-10-05T16:38:21.549Z,7.67
2022-10-05T16:41:02.104Z,7.69
2022-10-05T16:44:00.087Z,7.69
2022-10-05T16:46:36.286Z,7.70
2022-10-05T16:49:14.626Z,7.73
2022-10-05T16:51:51.964Z,7.61
2022-10-05T16:54:31.709Z,7.56
2022-10-05T16:57:09.020Z,7.54
2022-10-05T17:00:12.044Z,7.50
2022-10-05T17:03:23.131Z,7.48
2022-10-05T17:06:11.101Z,7.44
2022-10-05T17:12:12.165Z,7.47
2022-10-05T17:14:58.778Z,7.29
2022-10-05T17:17:49.158Z,7.27
2022-10-05T17:20:42.944Z,7.30
2022-10-05T17:23:30.874Z,7.32
2022-10-05T17:26:12.442Z,7.34
2022-10-05T17:28:48.822Z,7.29
2022-10-05T17:31:28.290Z,7.29
2022-10-05T17:34:29.655Z,7.27
2022-10-05T17:37:25.151Z,7.25
2022-10-05T17:43:08.460Z,6.98
2022-10-05T17:45:59.290Z,6.83
2022-10-05T17:48:45.668Z,6.74
2022-10-05T17:55:10.042Z,6.58
2022-10-05T17:57:44.300Z,6.51
2022-10-05T18:03:50.656Z,6.47
2022-10-05T18:06:54.543Z,6.25
2022-10-05T18:09:41.352Z,6.26
2022-10-05T18:12:51.904Z,6.28
2022-10-05T18:15:56.443Z,6.29
2022-10-05T18:18:58.588Z,6.21
2022-10-05T18:21:40.696Z,6.15
2022-10-05T18:24:55.280Z,6.06
2022-10-05T18:30:49.194Z,5.94
2022-10-05T18:34:07.737Z,5.90
2022-10-05T18:37:19.461Z,5.89
2022-10-05T18:40:07.158Z,5.84
2022-10-05T18:42:46.348Z,5.77
2022-10-05T18:45:28.186Z,5.75
2022-10-05T18:48:11.988Z,5.74
2022-10-05T18:50:54.015Z,5.79
2022-10-05T18:53:32.410Z,5.87
2022-10-05T18:56:18.255Z,5.93
2022-10-05T18:58:57.177Z,6.01
2022-10-05T19:01:50.279Z,6.10
2022-10-05T19:04:42.118Z,6.19
2022-10-05T19:07:22.621Z,6.26
2022-10-05T19:10:18.907Z,6.27
2022-10-05T19:13:02.767Z,6.32
2022-10-05T19:18:48.595Z,6.34
2022-10-05T19:21:28.105Z,6.37
2022-10-05T19:27:13.272Z,6.55
2022-10-05T19:30:07.362Z,6.47
2022-10-05T19:32:46.393Z,6.47
2022-10-05T19:35:32.032Z,6.45
2022-10-05T19:41:08.310Z,6.40
2022-10-05T19:43:50.908Z,6.40
2022-10-05T19:46:28.443Z,6.41
2022-10-05T19:49:03.023Z,6.39
2022-10-05T19:51:40.992Z,6.38
2022-10-05T19:54:21.763Z,6.37
2022-10-05T19:56:57.861Z,6.36
2022-10-05T19:59:37.057Z,6.34
2022-10-05T20:02:13.610Z,6.36
2022-10-05T20:04:49.683Z,6.37
2022-10-05T20:07:24.587Z,6.39
2022-10-05T20:10:00.183Z,6.37
2022-10-05T20:12:56.689Z,6.37
2022-10-05T20:15:49.336Z,6.36
2022-10-05T20:18:59.351Z,6.33
2022-10-05T20:21:44.939Z,6.32
2022-10-05T20:24:20.549Z,6.30
2022-10-05T20:27:06.084Z,6.28
2022-10-05T20:29:40.711Z,6.28
2022-10-05T20:32:18.136Z,6.25
2022-10-05T20:34:53.372Z,6.19
2022-10-05T20:37:27.294Z,6.13
2022-10-05T20:40:00.793Z,6.06
2022-10-05T20:42:34.920Z,6.01
2022-10-05T20:45:10.353Z,5.94
2022-10-05T20:47:45.443Z,5.88
2022-10-05T20:50:21.261Z,5.83
2022-10-05T20:52:54.750Z,5.75
2022-10-05T20:55:29.594Z,5.72
2022-10-05T20:58:03.989Z,5.70
2022-10-05T21:00:56.349Z,5.70
2022-10-05T21:03:29.830Z,5.74
2022-10-05T21:06:03.363Z,5.72
2022-10-05T21:08:38.299Z,5.72
2022-10-05T21:11:11.934Z,5.68
2022-10-05T21:13:46.279Z,5.63
2022-10-05T21:16:20.748Z,5.61
2022-10-05T21:18:54.196Z,5.62
2022-10-05T21:21:28.252Z,5.67
2022-10-05T21:24:01.721Z,5.72
2022-10-05T21:26:37.110Z,5.78
2022-10-05T21:29:12.678Z,5.83
2022-10-05T21:31:46.296Z,5.90
2022-10-05T21:34:19.714Z,5.93
2022-10-05T21:36:53.011Z,5.98
2022-10-05T21:39:26.988Z,6.03
2022-10-05T21:42:00.446Z,6.04
2022-10-05T21:44:33.718Z,6.07
2022-10-05T21:47:07.768Z,6.11
2022-10-05T21:49:42.617Z,6.13
2022-10-05T21:52:16.084Z,6.15
2022-10-05T21:54:49.644Z,6.15
2022-10-05T21:57:23.273Z,6.18
2022-10-05T21:59:56.714Z,6.22
2022-10-05T22:02:30.096Z,6.20
2022-10-05T22:05:03.672Z,6.20
2022-10-05T22:07:36.984Z,6.18
2022-10-05T22:10:11.901Z,6.22
2022-10-05T22:12:46.945Z,6.24
2022-10-05T22:15:20.667Z,6.23
2022-10-05T22:17:54.153Z,6.25
2022-10-05T22:20:28.301Z,6.24
2022-10-05T22:23:01.892Z,6.26
2022-10-05T22:25:35.893Z,6.27
2022-10-05T22:28:11.825Z,6.28
2022-10-05T22:30:46.421Z,6.31
2022-10-05T22:33:19.767Z,6.32
2022-10-05T22:35:53.197Z,6.32
2022-10-05T22:38:27.313Z,6.33
2022-10-05T22:41:00.957Z,6.31
2022-10-05T22:43:34.162Z,6.30
2022-10-05T22:46:12.348Z,6.28
2022-10-05T22:48:46.304Z,6.28
2022-10-05T22:51:19.658Z,6.30
2022-10-05T22:53:52.971Z,6.33
2022-10-05T22:56:26.269Z,6.36
2022-10-05T22:58:59.992Z,6.38
2022-10-05T23:01:33.562Z,6.42
2022-10-05T23:04:08.896Z,6.46
2022-10-05T23:06:42.786Z,6.48
2022-10-05T23:09:16.429Z,6.50
2022-10-05T23:11:51.557Z,6.54
2022-10-05T23:14:25.134Z,6.57
2022-10-05T23:16:58.646Z,6.58
2022-10-05T23:19:32.171Z,6.58
2022-10-05T23:22:06.395Z,6.59
2022-10-05T23:24:39.971Z,6.63
2022-10-05T23:27:13.803Z,6.64
2022-10-05T23:29:47.463Z,6.64
2022-10-05T23:32:21.296Z,6.68
2022-10-05T23:34:54.915Z,6.69
2022-10-05T23:37:29.210Z,6.69
2022-10-05T23:40:02.740Z,6.69
2022-10-05T23:42:36.054Z,6.69
2022-10-05T23:45:12.335Z,6.73
2022-10-05T23:47:47.370Z,6.73
2022-10-05T23:50:21.537Z,6.77
2022-10-05T23:52:55.021Z,6.78
2022-10-05T23:55:28.877Z,6.78
2022-10-05T23:58:02.534Z,6.78
